Time;durP1;ratioP1;P1;durP2;ratioP2;P2;SDS_P1;SDS_P2;PMS_P1;PMS_P2;Temp;Humidity;BMP_temperature;BMP_pressure;BME280_temperature;BME280_humidity;BME280_pressure;Samples;Min_cycle;Max_cycle;Signal;HPM_P1;HPM_P2
2021/07/21 00:00:49;;;;;;;0.00;0.00;;;;;;;25.65;49.49;98536.16;5034612;28;20065;-75
2021/07/21 00:03:15;;;;;;;0.10;0.10;;;;;;;25.60;49.52;98528.34;5034752;28;20033;-75
2021/07/21 00:05:41;;;;;;;0.00;0.00;;;;;;;25.59;49.46;98529.53;5066453;28;20032;-75
2021/07/21 00:08:06;;;;;;;0.08;0.08;;;;;;;25.57;49.69;98531.84;5034217;28;20469;-75
2021/07/21 00:10:33;;;;;;;0.00;0.00;;;;;;;25.55;49.82;98539.69;5033991;28;20026;-74
2021/07/21 00:16:11;;;;;;;0.10;0.10;;;;;;;25.49;50.05;98544.75;5034321;28;20447;-74
2021/07/21 00:18:44;;;;;;;0.13;0.13;;;;;;;25.47;49.90;98541.63;5034430;28;20041;-73
2021/07/21 00:21:12;;;;;;;0.15;0.15;;;;;;;25.46;50.02;98542.78;5034324;28;20037;-73
2021/07/21 00:23:39;;;;;;;0.17;0.17;;;;;;;25.41;49.72;98540.44;5034039;28;20087;-72
2021/07/21 00:26:04;;;;;;;0.00;0.00;;;;;;;25.37;49.95;98534.97;5034347;28;20037;-72
2021/07/21 00:28:31;;;;;;;0.15;0.15;;;;;;;25.36;49.93;98532.59;5033903;28;20056;-76
2021/07/21 00:30:56;;;;;;;0.00;0.00;;;;;;;25.34;49.82;98538.47;5066246;28;20029;-76
2021/07/21 00:33:23;;;;;;;0.32;0.32;;;;;;;25.31;49.74;98546.66;5066085;28;20088;-79
2021/07/21 00:35:49;;;;;;;0.17;0.17;;;;;;;25.26;49.50;98537.63;5065684;28;20056;-75
2021/07/21 00:38:15;;;;;;;0.10;0.10;;;;;;;25.28;49.54;98541.94;5033009;28;20072;-78
2021/07/21 00:40:41;;;;;;;0.32;0.32;;;;;;;25.26;49.48;98545.84;5065546;28;20025;-77
2021/07/21 00:43:07;;;;;;;0.50;0.50;;;;;;;25.24;49.63;98550.16;5065917;28;20480;-76
2021/07/21 00:45:32;;;;;;;0.68;0.30;;;;;;;25.26;49.53;98542.34;5033255;28;20029;-77
2021/07/21 00:47:58;;;;;;;0.38;0.38;;;;;;;25.24;49.63;98544.66;5033819;28;20021;-79
2021/07/21 00:50:24;;;;;;;0.00;0.00;;;;;;;25.20;49.72;98536.44;5033558;28;20075;-76
2021/07/21 00:52:50;;;;;;;0.63;0.63;;;;;;;25.17;49.93;98539.19;5032290;28;20056;-78
2021/07/21 00:55:17;;;;;;;0.10;0.10;;;;;;;25.13;49.90;98541.13;5065776;28;20064;-77
2021/07/21 00:57:42;;;;;;;0.20;0.20;;;;;;;25.08;49.79;98534.06;5065517;28;20076;-75
2021/07/21 01:00:13;;;;;;;0.20;0.20;;;;;;;25.06;49.87;98533.66;5033128;28;20445;-76
2021/07/21 01:02:40;;;;;;;0.00;0.00;;;;;;;25.02;49.63;98530.94;5065258;28;20061;-76
2021/07/21 01:05:13;;;;;;;0.25;0.25;;;;;;;25.00;49.78;98541.50;5033608;28;20033;-75
2021/07/21 01:07:40;;;;;;;0.63;0.63;;;;;;;24.98;49.85;98537.56;5033174;28;20037;-74
2021/07/21 01:10:08;;;;;;;0.00;0.00;;;;;;;24.91;49.98;98541.06;5033492;28;20083;-74
2021/07/21 01:12:36;;;;;;;;;;;;;;;24.88;49.91;98542.59;5033314;28;20036;-76
2021/07/21 01:15:09;;;;;;;0.00;0.00;;;;;;;24.84;49.73;98541.03;5033291;28;20019;-76
2021/07/21 01:17:56;;;;;;;2.45;1.13;;;;;;;24.81;49.88;98550.78;5032989;28;20481;-76
2021/07/21 01:20:36;;;;;;;0.10;0.10;;;;;;;24.78;50.08;98555.06;5033244;28;20039;-75
2021/07/21 01:23:13;;;;;;;0.00;0.00;;;;;;;24.74;50.08;98548.00;5033475;28;20025;-75
2021/07/21 01:26:11;;;;;;;0.20;0.20;;;;;;;24.72;50.15;98551.13;5033100;28;20063;-74
2021/07/21 01:28:40;;;;;;;0.45;0.45;;;;;;;24.71;49.90;98546.06;5032662;28;20076;-74
2021/07/21 01:31:11;;;;;;;0.10;0.10;;;;;;;24.70;50.00;98539.78;5033003;28;20029;-75
2021/07/21 01:33:39;;;;;;;0.10;0.10;;;;;;;24.68;50.02;98541.34;5033038;28;20055;-75
2021/07/21 01:36:28;;;;;;;0.10;0.10;;;;;;;24.66;50.12;98546.41;5033026;28;20440;-75
2021/07/21 01:38:55;;;;;;;0.15;0.15;;;;;;;24.62;49.83;98543.66;5032330;28;20405;-74
2021/07/21 01:41:24;;;;;;;0.28;0.28;;;;;;;24.62;49.94;98546.38;5032518;28;20473;-75
2021/07/21 01:43:56;;;;;;;0.00;0.00;;;;;;;24.57;49.52;98544.00;5064597;28;20117;-75
2021/07/21 01:46:23;;;;;;;0.03;0.03;;;;;;;24.56;49.53;98539.69;5032481;28;20033;-74
2021/07/21 01:48:51;;;;;;;0.05;0.05;;;;;;;24.56;49.39;98534.22;5032646;28;20436;-75
2021/07/21 01:51:18;;;;;;;0.00;0.00;;;;;;;24.55;49.53;98538.13;5032933;28;20064;-75
2021/07/21 01:53:45;;;;;;;0.32;0.32;;;;;;;24.56;49.50;98536.94;5032366;28;20079;-73
2021/07/21 01:56:12;;;;;;;0.88;0.35;;;;;;;24.52;49.10;98536.94;5032418;28;20087;-75
2021/07/21 01:58:39;;;;;;;0.20;0.20;;;;;;;24.54;49.16;98536.56;5032335;28;20040;-76
2021/07/21 02:01:06;;;;;;;0.45;0.45;;;;;;;24.52;49.33;98531.47;5032443;28;20040;-75
2021/07/21 02:03:33;;;;;;;0.05;0.05;;;;;;;24.49;49.19;98531.47;5032158;28;20052;-74
2021/07/21 02:06:03;;;;;;;0.00;0.00;;;;;;;24.48;49.37;98535.38;5032363;28;20029;-73
2021/07/21 02:08:28;;;;;;;0.22;0.22;;;;;;;24.43;49.44;98534.53;5032291;28;20108;-74
2021/07/21 02:10:58;;;;;;;0.20;0.20;;;;;;;24.44;49.39;98533.38;5031748;28;20155;-74
2021/07/21 02:13:28;;;;;;;0.80;0.80;;;;;;;24.43;49.48;98540.00;5031189;28;20409;-75
2021/07/21 02:15:54;;;;;;;0.10;0.10;;;;;;;24.41;49.47;98538.84;5031842;28;20465;-76
2021/07/21 02:18:20;;;;;;;0.17;0.13;;;;;;;24.37;49.31;98540.78;5032105;28;20029;-75
2021/07/21 02:20:47;;;;;;;0.00;0.00;;;;;;;24.35;49.40;98545.81;5031509;28;20501;-75
2021/07/21 02:23:15;;;;;;;0.55;0.55;;;;;;;24.33;49.38;98548.16;5032072;28;20083;-75
2021/07/21 02:25:41;;;;;;;0.00;0.00;;;;;;;24.31;49.54;98559.47;5031540;28;20140;-75
2021/07/21 02:28:07;;;;;;;0.28;0.28;;;;;;;24.29;49.49;98564.50;5032011;28;20503;-77
2021/07/21 02:30:33;;;;;;;0.57;0.57;;;;;;;24.26;49.56;98559.81;5030370;28;20021;-76
2021/07/21 02:33:07;;;;;;;0.65;0.30;;;;;;;24.26;49.46;98557.88;5031643;28;20117;-76
2021/07/21 02:35:33;;;;;;;0.38;0.38;;;;;;;24.27;49.42;98561.41;5031556;28;20051;-76
2021/07/21 02:37:59;;;;;;;0.10;0.10;;;;;;;24.27;49.28;98572.31;5031844;28;20033;-77
2021/07/21 02:40:25;;;;;;;0.25;0.25;;;;;;;24.25;49.33;98569.94;5031768;28;20025;-78
2021/07/21 02:42:51;;;;;;;0.25;0.25;;;;;;;24.23;49.33;98572.31;5063509;28;20029;-77
2021/07/21 02:45:17;;;;;;;0.17;0.17;;;;;;;24.22;49.47;98576.19;5032079;28;20022;-77
2021/07/21 02:47:43;;;;;;;0.45;0.45;;;;;;;24.23;49.39;98585.16;5030156;28;20029;-77
2021/07/21 02:50:11;;;;;;;0.30;0.30;;;;;;;24.23;49.09;98582.44;5031619;28;20040;-77
2021/07/21 02:53:03;;;;;;;0.22;0.22;;;;;;;24.22;48.99;98581.66;5031290;28;20121;-76
2021/07/21 02:55:50;;;;;;;0.10;0.10;;;;;;;24.22;49.03;98580.88;5031684;28;20072;-78
2021/07/21 02:58:28;;;;;;;0.10;0.10;;;;;;;24.22;48.95;98583.63;5063741;28;20061;-77
2021/07/21 03:00:57;;;;;;;0.32;0.32;;;;;;;24.22;48.75;98592.59;5031529;28;20022;-78
2021/07/21 03:03:24;;;;;;;0.05;0.05;;;;;;;24.24;48.58;98586.72;5031531;28;20044;-77
2021/07/21 03:05:55;;;;;;;0.88;0.73;;;;;;;24.25;48.40;98591.81;5031443;28;20025;-77
2021/07/21 03:08:25;;;;;;;0.20;0.20;;;;;;;24.23;48.53;98585.97;5031428;28;20123;-78
2021/07/21 03:10:54;;;;;;;2.50;1.25;;;;;;;24.25;48.15;98591.03;5031384;28;20033;-78
2021/07/21 03:13:23;;;;;;;0.10;0.10;;;;;;;24.30;48.00;98596.94;5030009;28;20055;-77
2021/07/21 03:15:49;;;;;;;0.00;0.00;;;;;;;24.36;47.80;98588.38;5029688;28;20114;-77
2021/07/21 03:18:18;;;;;;;0.05;0.05;;;;;;;24.45;47.62;98597.03;5031258;28;20076;-77
2021/07/21 03:20:47;;;;;;;0.10;0.10;;;;;;;24.56;47.25;98597.09;5030876;28;20017;-77
2021/07/21 03:23:12;;;;;;;0.35;0.32;;;;;;;24.69;47.04;98603.84;5030798;28;20480;-78
2021/07/21 03:25:40;;;;;;;0.10;0.10;;;;;;;24.85;46.66;98598.09;5030892;28;20056;-77
2021/07/21 03:28:05;;;;;;;0.08;0.08;;;;;;;25.02;46.38;98598.53;5063212;28;20034;-77
2021/07/21 03:30:33;;;;;;;0.63;0.63;;;;;;;25.22;46.21;98605.28;5063181;28;20064;-78
2021/07/21 03:33:00;;;;;;;0.95;0.45;;;;;;;25.37;45.56;98605.31;5030994;28;20551;-78
2021/07/21 03:35:29;;;;;;;0.90;0.65;;;;;;;25.60;45.23;98612.44;5062991;28;20029;-79
2021/07/21 03:37:57;;;;;;;5.05;0.90;;;;;;;25.83;44.83;98609.34;5062864;28;20076;-76
2021/07/21 03:40:25;;;;;;;0.10;0.10;;;;;;;26.03;43.78;98610.53;5030595;28;20033;-75
2021/07/21 03:42:52;;;;;;;0.00;0.00;;;;;;;26.33;43.46;98608.59;5030592;28;20095;-75
2021/07/21 03:45:18;;;;;;;0.00;0.00;;;;;;;26.58;42.76;98603.06;5030883;28;20067;-76
2021/07/21 03:47:46;;;;;;;0.55;0.30;;;;;;;26.87;42.40;98604.97;5030874;28;20026;-76
2021/07/21 03:50:12;;;;;;;0.08;0.08;;;;;;;27.06;41.74;98611.97;5030609;28;20025;-77
2021/07/21 03:52:43;;;;;;;0.32;0.32;;;;;;;27.19;41.57;98604.88;5030623;28;20524;-76
2021/07/21 03:55:11;;;;;;;0.40;0.40;;;;;;;27.35;41.30;98614.59;5030652;28;20030;-76
2021/07/21 03:57:36;;;;;;;0.47;0.47;;;;;;;27.40;40.95;98608.69;5030539;28;20452;-75
2021/07/21 04:00:09;;;;;;;0.00;0.00;;;;;;;27.56;40.94;98606.28;5030916;28;20041;-75
2021/07/21 04:02:35;;;;;;;0.38;0.38;;;;;;;27.78;40.20;98611.63;5030625;28;20022;-78
2021/07/21 04:05:01;;;;;;;5.65;0.32;;;;;;;28.04;39.99;98610.25;5030698;28;20048;-77
2021/07/21 04:07:27;;;;;;;0.15;0.15;;;;;;;28.30;39.42;98610.84;5030328;28;20018;-76
2021/07/21 04:09:53;;;;;;;0.30;0.30;;;;;;;28.51;38.92;98611.84;5030065;28;20044;-76
2021/07/21 04:12:21;;;;;;;1.95;0.50;;;;;;;28.77;38.74;98607.66;5030615;28;20023;-76
2021/07/21 04:14:47;;;;;;;;;;;;;;;28.99;38.03;98610.97;5030431;28;20496;-76
2021/07/21 04:17:15;;;;;;;0.00;0.00;;;;;;;29.13;37.98;98610.00;5030374;28;20004;-76
2021/07/21 04:19:42;;;;;;;0.20;0.20;;;;;;;29.20;37.40;98618.16;5030249;28;20025;-75
2021/07/21 04:22:08;;;;;;;0.22;0.22;;;;;;;29.12;37.70;98627.69;5029591;28;20029;-75
2021/07/21 04:24:34;;;;;;;0.20;0.20;;;;;;;28.99;37.83;98621.97;5030200;28;20103;-78
2021/07/21 04:27:03;;;;;;;0.77;0.75;;;;;;;29.09;37.74;98625.78;5030418;28;20041;-76
2021/07/21 04:29:32;;;;;;;0.70;0.65;;;;;;;29.22;37.85;98629.56;5018685;28;20038;-77
2021/07/21 04:31:59;;;;;;;0.15;0.15;;;;;;;29.44;37.03;98621.00;5023823;28;20111;-74
2021/07/21 04:34:25;;;;;;;1.85;0.55;;;;;;;29.62;36.81;98625.50;5030205;28;20036;-76
2021/07/21 04:36:51;;;;;;;0.70;0.47;;;;;;;29.91;36.15;98630.63;5033420;28;20053;-75
2021/07/21 04:39:19;;;;;;;0.75;0.73;;;;;;;29.95;35.92;98620.31;5033544;28;20033;-76
2021/07/21 04:41:51;;;;;;;0.57;0.57;;;;;;;29.97;36.06;98617.94;5033668;28;20083;-77
2021/07/21 04:44:16;;;;;;;2.13;1.17;;;;;;;29.92;35.95;98627.47;5033758;28;20033;-73
2021/07/21 04:46:43;;;;;;;1.35;1.20;;;;;;;29.95;36.31;98634.09;5033531;28;20021;-75
2021/07/21 04:49:09;;;;;;;0.93;0.68;;;;;;;30.20;35.76;98630.97;5033911;28;20045;-75
2021/07/21 04:51:36;;;;;;;0.10;0.10;;;;;;;30.33;35.42;98633.88;5033746;28;20036;-76
2021/07/21 04:54:05;;;;;;;0.93;0.30;;;;;;;30.59;35.04;98640.56;5033173;28;20095;-74
2021/07/21 04:56:31;;;;;;;0.20;0.20;;;;;;;30.79;34.36;98646.09;5033588;28;20097;-74
2021/07/21 04:58:57;;;;;;;0.35;0.35;;;;;;;30.95;34.07;98642.63;5032962;28;20067;-74
2021/07/21 05:01:22;;;;;;;0.55;0.43;;;;;;;31.27;33.80;98643.22;5033390;28;20160;-75
2021/07/21 05:03:48;;;;;;;0.13;0.13;;;;;;;31.17;33.51;98645.00;5032931;28;20037;-74
2021/07/21 05:06:13;;;;;;;0.22;0.22;;;;;;;31.02;33.96;98644.47;5033194;28;20493;-77
2021/07/21 05:08:39;;;;;;;0.63;0.63;;;;;;;30.77;34.14;98654.03;5033359;28;20028;-77
2021/07/21 05:11:04;;;;;;;0.00;0.00;;;;;;;30.52;34.51;98656.44;5033070;28;20067;-74
2021/07/21 05:13:30;;;;;;;0.10;0.10;;;;;;;30.15;35.60;98653.47;5033307;28;20106;-77
2021/07/21 05:15:55;;;;;;;5.50;1.75;;;;;;;29.85;35.89;98658.63;5033065;28;20481;-75
2021/07/21 05:18:21;;;;;;;0.10;0.10;;;;;;;29.68;36.50;98663.19;5033234;28;20468;-75
2021/07/21 05:20:46;;;;;;;0.22;0.22;;;;;;;29.79;36.41;98665.81;5032858;28;20025;-74
2021/07/21 05:23:12;;;;;;;0.30;0.30;;;;;;;29.90;36.07;98656.59;5033186;28;20038;-75
2021/07/21 05:25:39;;;;;;;0.20;0.20;;;;;;;30.09;35.63;98660.66;5032630;28;20056;-74
2021/07/21 05:28:06;;;;;;;0.38;0.38;;;;;;;30.29;35.91;98661.50;5032838;28;20109;-75
2021/07/21 05:30:31;;;;;;;0.20;0.20;;;;;;;30.34;35.66;98661.03;5031824;28;20044;-76
2021/07/21 05:32:57;;;;;;;0.47;0.47;;;;;;;30.27;35.57;98663.13;5032709;28;20021;-75
2021/07/21 05:35:23;;;;;;;0.13;0.13;;;;;;;30.04;35.97;98661.91;5032561;28;20511;-76
2021/07/21 05:37:48;;;;;;;0.85;0.85;;;;;;;29.83;36.27;98655.53;5032365;28;20098;-75
2021/07/21 05:40:14;;;;;;;0.90;0.90;;;;;;;29.81;36.31;98648.84;5032819;28;20099;-76
2021/07/21 05:42:39;;;;;;;0.32;0.32;;;;;;;29.70;36.17;98644.28;5032993;28;20401;-75
2021/07/21 05:45:05;;;;;;;3.78;0.43;;;;;;;29.80;36.17;98658.31;5032519;28;20029;-75
2021/07/21 05:47:31;;;;;;;0.40;0.40;;;;;;;29.83;36.34;98657.47;5032128;28;20403;-75
2021/07/21 05:49:56;;;;;;;0.15;0.15;;;;;;;29.96;36.65;98652.22;5032140;28;20028;-75
2021/07/21 05:52:22;;;;;;;0.30;0.30;;;;;;;30.09;35.98;98658.69;5032572;28;20084;-75
2021/07/21 05:54:47;;;;;;;0.30;0.30;;;;;;;30.25;35.79;98660.00;5031930;28;20025;-75
2021/07/21 05:57:13;;;;;;;0.10;0.10;;;;;;;30.39;35.76;98665.28;5031111;28;20148;-75
2021/07/21 05:59:38;;;;;;;0.38;0.38;;;;;;;30.39;35.36;98670.81;5032475;28;20018;-76
2021/07/21 06:02:04;;;;;;;1.52;1.45;;;;;;;30.34;35.18;98668.53;5031874;28;20556;-75
2021/07/21 06:04:29;;;;;;;0.65;0.40;;;;;;;30.18;35.56;98669.19;5032288;28;20026;-75
2021/07/21 06:06:54;;;;;;;0.10;0.10;;;;;;;29.98;35.75;98672.66;5031930;28;20499;-75
2021/07/21 06:09:20;;;;;;;0.43;0.43;;;;;;;29.92;36.60;98670.75;5032281;28;20029;-74
2021/07/21 06:11:45;;;;;;;0.28;0.28;;;;;;;29.96;36.47;98675.03;5031813;28;20028;-77
2021/07/21 06:14:11;;;;;;;1.25;0.35;;;;;;;30.26;35.86;98676.16;5032070;28;20392;-75
2021/07/21 06:16:37;;;;;;;1.23;0.40;;;;;;;30.65;35.52;98676.69;5031853;28;20404;-75
2021/07/21 06:19:04;;;;;;;0.57;0.40;;;;;;;30.97;35.21;98689.91;5031579;28;20029;-75
2021/07/21 06:21:29;;;;;;;0.20;0.20;;;;;;;31.29;34.54;98680.25;5031731;28;20025;-75
2021/07/21 06:23:55;;;;;;;0.43;0.43;;;;;;;31.45;34.27;98685.03;5031444;28;20024;-75
2021/07/21 06:26:20;;;;;;;0.47;0.47;;;;;;;31.40;34.01;98690.31;5032031;28;20417;-75
2021/07/21 06:28:48;;;;;;;0.20;0.20;;;;;;;31.28;33.71;98684.22;5031607;28;20024;-76
2021/07/21 06:31:14;;;;;;;0.30;0.30;;;;;;;31.22;33.85;98680.38;5031799;28;20025;-75
2021/07/21 06:33:39;;;;;;;1.00;0.30;;;;;;;31.25;34.14;98678.75;5031441;28;20063;-75
2021/07/21 06:36:05;;;;;;;1.98;0.65;;;;;;;31.39;33.80;98680.47;5031425;28;20025;-75
2021/07/21 06:38:30;;;;;;;0.22;0.22;;;;;;;31.52;33.31;98686.88;5031252;28;20028;-75
2021/07/21 06:40:56;;;;;;;0.20;0.20;;;;;;;31.66;32.95;98693.34;5031508;28;20030;-75
2021/07/21 06:43:22;;;;;;;1.38;1.27;;;;;;;31.70;33.07;98696.81;5031653;28;20029;-75
2021/07/21 06:45:48;;;;;;;0.20;0.20;;;;;;;31.71;33.46;98681.78;5031327;28;20091;-75
2021/07/21 06:48:13;;;;;;;0.17;0.17;;;;;;;31.75;32.64;98685.22;5031538;28;20025;-75
2021/07/21 06:50:39;;;;;;;0.57;0.57;;;;;;;31.69;32.91;98695.25;5031730;28;20366;-76
2021/07/21 06:53:04;;;;;;;0.22;0.22;;;;;;;31.60;33.01;98691.06;5031481;28;20499;-75
2021/07/21 06:55:30;;;;;;;0.20;0.20;;;;;;;31.42;32.99;98702.50;5031375;28;20033;-75
2021/07/21 06:57:56;;;;;;;0.22;0.22;;;;;;;31.29;33.59;98702.34;5031044;28;20548;-75
2021/07/21 07:00:21;;;;;;;0.35;0.35;;;;;;;31.16;33.87;98698.66;5031621;28;20108;-75
2021/07/21 07:02:46;;;;;;;0.22;0.22;;;;;;;31.07;34.02;98701.19;5030943;28;20099;-76
2021/07/21 07:05:12;;;;;;;0.52;0.52;;;;;;;30.89;34.12;98704.28;5031045;28;20029;-75
2021/07/21 07:07:38;;;;;;;0.20;0.20;;;;;;;30.82;34.27;98708.75;5031290;28;20439;-75
2021/07/21 07:10:04;;;;;;;0.10;0.10;;;;;;;30.73;34.10;98700.22;5031246;28;20033;-75
2021/07/21 07:12:31;;;;;;;0.45;0.45;;;;;;;30.65;34.15;98701.53;5031158;28;20029;-75
2021/07/21 07:14:56;;;;;;;0.30;0.30;;;;;;;30.58;34.12;98696.13;5030952;28;20489;-75
2021/07/21 07:17:22;;;;;;;1.38;0.95;;;;;;;30.42;34.67;98697.56;5030745;28;20041;-75
2021/07/21 07:19:47;;;;;;;0.00;0.00;;;;;;;30.31;34.73;98694.19;5030862;28;20040;-75
2021/07/21 07:22:13;;;;;;;1.55;0.77;;;;;;;30.31;34.47;98697.75;5031058;28;20436;-75
2021/07/21 07:24:38;;;;;;;0.22;0.22;;;;;;;30.27;34.45;98697.03;5030688;28;20041;-75
2021/07/21 07:27:04;;;;;;;0.15;0.15;;;;;;;30.24;34.55;98699.84;5029957;28;20060;-76
2021/07/21 07:29:29;;;;;;;0.38;0.38;;;;;;;30.23;34.09;98707.31;5030773;28;20420;-75
2021/07/21 07:31:55;;;;;;;0.28;0.22;;;;;;;30.18;34.24;98702.28;5030946;28;20017;-76
2021/07/21 07:34:21;;;;;;;0.20;0.20;;;;;;;30.23;34.38;98704.56;5030952;28;20513;-75
2021/07/21 07:36:46;;;;;;;0.13;0.13;;;;;;;30.25;34.50;98707.69;5030980;28;20029;-75
2021/07/21 07:39:12;;;;;;;0.20;0.20;;;;;;;30.29;33.83;98696.59;5030792;28;20443;-75
2021/07/21 07:41:38;;;;;;;0.50;0.50;;;;;;;30.19;33.69;98701.84;5030701;28;20108;-75
2021/07/21 07:44:05;;;;;;;0.00;0.00;;;;;;;30.20;33.71;98702.66;5030330;28;20108;-75
2021/07/21 07:46:31;;;;;;;0.27;0.27;;;;;;;30.25;33.16;98699.41;5030718;28;20033;-75
2021/07/21 07:48:57;;;;;;;1.48;0.73;;;;;;;30.29;33.23;98693.84;5030219;28;20637;-75
2021/07/21 07:51:23;;;;;;;0.73;0.73;;;;;;;30.34;33.69;98687.84;5029610;28;20083;-77
2021/07/21 07:53:49;;;;;;;0.32;0.25;;;;;;;30.38;33.49;98685.81;5030691;28;20034;-74
2021/07/21 07:56:14;;;;;;;0.00;0.00;;;;;;;30.47;33.20;98694.31;5030702;28;20386;-77
2021/07/21 07:58:40;;;;;;;0.20;0.20;;;;;;;30.55;32.89;98688.72;5030489;28;20500;-76
2021/07/21 08:01:05;;;;;;;0.10;0.10;;;;;;;30.60;32.66;98689.03;5030622;28;20029;-76
2021/07/21 08:03:31;;;;;;;0.40;0.40;;;;;;;30.68;32.65;98697.94;5031034;28;20033;-76
2021/07/21 08:05:59;;;;;;;0.10;0.10;;;;;;;30.66;32.91;98692.84;5030595;28;20498;-76
2021/07/21 08:08:28;;;;;;;0.30;0.30;;;;;;;30.61;32.74;98696.06;5030754;28;20029;-76
2021/07/21 08:10:54;;;;;;;0.10;0.10;;;;;;;30.60;32.25;98702.03;5032487;28;20025;-76
2021/07/21 08:13:20;;;;;;;0.30;0.30;;;;;;;30.50;32.13;98693.53;5034821;28;20032;-76
2021/07/21 08:15:47;;;;;;;0.22;0.22;;;;;;;30.45;32.39;98705.00;5034482;28;20030;-75
2021/07/21 08:18:13;;;;;;;0.33;0.33;;;;;;;30.44;32.84;98699.91;5034229;28;20519;-76
2021/07/21 08:20:39;;;;;;;0.03;0.03;;;;;;;30.49;32.37;98697.47;5034035;28;20040;-76
2021/07/21 08:23:05;;;;;;;0.45;0.30;;;;;;;30.44;31.99;98695.16;5033900;28;20034;-76
2021/07/21 08:25:31;;;;;;;0.00;0.00;;;;;;;30.47;32.11;98701.84;5034266;28;20053;-76
2021/07/21 08:27:57;;;;;;;0.68;0.40;;;;;;;30.44;32.42;98697.91;5033970;28;20083;-76
2021/07/21 08:30:23;;;;;;;0.73;0.73;;;;;;;30.43;32.58;98706.63;5034286;28;20033;-76
2021/07/21 08:32:51;;;;;;;0.20;0.20;;;;;;;30.49;32.80;98697.47;5034000;28;20045;-76
2021/07/21 08:35:19;;;;;;;0.45;0.40;;;;;;;30.54;32.11;98687.94;5034041;28;20030;-76
2021/07/21 08:37:45;;;;;;;2.22;0.50;;;;;;;30.65;32.74;98698.78;5034054;28;20029;-76
2021/07/21 08:40:12;;;;;;;0.43;0.43;;;;;;;30.76;31.89;98693.88;5032382;28;20405;-75
2021/07/21 08:42:38;;;;;;;0.22;0.22;;;;;;;30.88;31.70;98686.16;5033907;28;20025;-76
2021/07/21 08:45:06;;;;;;;0.25;0.25;;;;;;;30.98;32.40;98693.44;5033679;28;20048;-75
2021/07/21 08:47:31;;;;;;;3.65;1.42;;;;;;;31.08;32.35;98689.75;5033711;28;20082;-75
2021/07/21 08:49:57;;;;;;;0.05;0.05;;;;;;;31.10;30.93;98692.88;5033611;28;20502;-75
2021/07/21 08:52:23;;;;;;;0.40;0.40;;;;;;;31.10;30.41;98692.88;5032421;28;20032;-75
2021/07/21 08:54:51;;;;;;;0.98;0.88;;;;;;;31.14;30.44;98684.53;5033157;28;20025;-75
2021/07/21 08:57:18;;;;;;;0.30;0.30;;;;;;;31.14;30.15;98682.53;5033623;28;20026;-77
2021/07/21 08:59:44;;;;;;;0.43;0.30;;;;;;;31.14;30.66;98684.53;5033578;28;20163;-74
2021/07/21 09:02:11;;;;;;;0.88;0.50;;;;;;;31.16;30.60;98681.31;5033686;28;20036;-75
2021/07/21 09:04:37;;;;;;;0.30;0.30;;;;;;;31.17;29.33;98680.13;5033548;28;20111;-76
2021/07/21 09:07:04;;;;;;;0.17;0.17;;;;;;;31.19;29.49;98669.41;5033086;28;20389;-75
2021/07/21 09:09:30;;;;;;;0.55;0.55;;;;;;;31.22;30.18;98672.09;5033825;28;20029;-74
2021/07/21 09:11:56;;;;;;;0.10;0.10;;;;;;;31.28;30.20;98675.91;5033201;28;20026;-75
2021/07/21 09:14:22;;;;;;;0.25;0.20;;;;;;;31.29;30.03;98676.72;5033188;28;20029;-75
2021/07/21 09:17:04;;;;;;;1.08;0.60;;;;;;;31.32;30.22;98673.09;5033267;28;20550;-75
2021/07/21 09:19:32;;;;;;;0.00;0.00;;;;;;;31.35;29.92;98675.00;5033107;28;20025;-75
2021/07/21 09:22:19;;;;;;;0.10;0.10;;;;;;;31.25;29.25;98674.03;5031327;28;20034;-75
2021/07/21 09:25:14;;;;;;;0.30;0.30;;;;;;;31.29;29.59;98685.78;5032990;28;20046;-76
2021/07/21 09:27:42;;;;;;;0.30;0.30;;;;;;;31.32;28.82;98675.84;5032993;28;20516;-75
2021/07/21 09:30:09;;;;;;;0.55;0.55;;;;;;;31.28;29.08;98667.63;5032828;28;20118;-74
2021/07/21 09:32:55;;;;;;;2.08;1.20;;;;;;;31.31;28.92;98663.25;5033014;28;20021;-75
2021/07/21 09:35:24;;;;;;;0.15;0.15;;;;;;;31.30;29.74;98662.47;5032914;28;20112;-76
2021/07/21 09:37:50;;;;;;;0.52;0.52;;;;;;;31.36;29.77;98659.19;5032907;28;20025;-77
2021/07/21 09:40:16;;;;;;;0.03;0.03;;;;;;;31.42;29.94;98663.81;5032264;28;20052;-73
2021/07/21 09:42:41;;;;;;;0.25;0.25;;;;;;;31.44;29.72;98657.84;5032617;28;20022;-76
2021/07/21 09:45:11;;;;;;;0.00;0.00;;;;;;;31.48;29.47;98649.47;5032415;28;20025;-76
2021/07/21 09:47:41;;;;;;;0.15;0.15;;;;;;;31.48;29.16;98658.53;5032679;28;20038;-76
2021/07/21 09:50:15;;;;;;;0.35;0.20;;;;;;;31.49;29.41;98646.28;5032062;28;20481;-76
2021/07/21 09:52:49;;;;;;;0.17;0.17;;;;;;;31.52;29.15;98644.66;5032652;28;20039;-76
2021/07/21 09:55:16;;;;;;;0.08;0.08;;;;;;;31.53;29.03;98641.47;5032276;28;20060;-76
2021/07/21 09:57:43;;;;;;;0.52;0.52;;;;;;;31.56;28.89;98648.13;5032826;28;20032;-76
2021/07/21 10:00:29;;;;;;;0.20;0.20;;;;;;;31.57;28.55;98644.94;5032088;28;20073;-76
2021/07/21 10:03:13;;;;;;;0.03;0.03;;;;;;;31.62;28.18;98643.66;5032276;28;20058;-74
2021/07/21 10:05:59;;;;;;;0.17;0.17;;;;;;;31.63;28.28;98636.91;5032458;28;20084;-76
2021/07/21 10:08:44;;;;;;;0.57;0.57;;;;;;;31.66;28.21;98635.31;5032313;28;20104;-76
2021/07/21 10:11:32;;;;;;;0.47;0.47;;;;;;;31.62;28.24;98636.13;5031788;28;20037;-76
2021/07/21 10:14:03;;;;;;;0.08;0.08;;;;;;;31.67;27.70;98639.63;5031977;28;20045;-75
2021/07/21 10:16:45;;;;;;;0.30;0.30;;;;;;;31.72;27.22;98628.06;5032182;28;20538;-75
2021/07/21 10:19:23;;;;;;;3.63;0.35;;;;;;;31.71;27.52;98630.06;5031959;28;20030;-75
2021/07/21 10:22:01;;;;;;;0.65;0.60;;;;;;;31.74;27.22;98625.66;5031892;28;20485;-76
2021/07/21 10:24:31;;;;;;;0.10;0.10;;;;;;;31.69;27.40;98621.41;5031889;28;20029;-76
2021/07/21 10:26:57;;;;;;;0.32;0.30;;;;;;;31.72;27.41;98623.28;5031843;28;20029;-76
2021/07/21 10:29:24;;;;;;;0.70;0.70;;;;;;;31.76;26.64;98623.22;5031630;28;20436;-76
2021/07/21 10:31:50;;;;;;;1.80;0.20;;;;;;;31.77;26.26;98613.72;5032014;28;20036;-76
2021/07/21 10:34:18;;;;;;;0.55;0.55;;;;;;;31.80;25.57;98617.59;5030621;28;20033;-76
2021/07/21 10:36:44;;;;;;;0.68;0.68;;;;;;;31.82;26.14;98629.00;5031893;28;20021;-76
2021/07/21 10:39:21;;;;;;;0.32;0.32;;;;;;;31.86;26.23;98613.91;5031239;28;20033;-76
2021/07/21 10:41:47;;;;;;;0.75;0.40;;;;;;;31.87;25.62;98601.63;5031958;28;20036;-76
2021/07/21 10:44:15;;;;;;;1.50;1.00;;;;;;;31.84;25.54;98616.31;5031329;28;20025;-76
2021/07/21 10:46:54;;;;;;;0.20;0.20;;;;;;;31.87;25.27;98614.66;5031480;28;20029;-76
2021/07/21 10:55:03;;;;;;;1.45;0.60;;;;;;;31.96;24.60;98603.78;5029331;28;20064;-76
2021/07/21 11:00:36;;;;;;;0.30;0.30;;;;;;;32.01;23.55;98594.19;5031330;28;20471;-76
2021/07/21 11:03:27;;;;;;;0.52;0.22;;;;;;;32.03;23.61;98584.25;5030956;28;20025;-76
2021/07/21 11:06:07;;;;;;;0.10;0.10;;;;;;;31.99;23.57;98594.63;5026072;28;20440;-76
2021/07/21 11:08:43;;;;;;;0.77;0.77;;;;;;;31.99;24.26;98574.50;5031321;28;20068;-75
2021/07/21 11:11:16;;;;;;;0.45;0.45;;;;;;;31.97;23.85;98586.00;5031319;28;20040;-76
2021/07/21 11:13:41;;;;;;;0.30;0.30;;;;;;;31.97;23.16;98579.66;5031054;28;20026;-76
2021/07/21 11:16:37;;;;;;;0.82;0.82;;;;;;;32.01;22.79;98588.66;5030849;28;20032;-76
2021/07/21 11:19:25;;;;;;;0.43;0.43;;;;;;;32.02;22.44;98585.47;5030600;28;20402;-76
2021/07/21 11:22:02;;;;;;;0.00;0.00;;;;;;;32.05;22.38;98590.13;5031202;28;20033;-76
2021/07/21 11:24:29;;;;;;;0.00;0.00;;;;;;;32.03;22.21;98589.78;5030808;28;20037;-76
2021/07/21 11:26:55;;;;;;;1.52;0.20;;;;;;;32.02;22.10;98573.59;5031140;28;20417;-76
2021/07/21 11:29:24;;;;;;;4.15;0.28;;;;;;;32.02;22.31;98585.47;5030708;28;20106;-76
2021/07/21 11:31:49;;;;;;;0.50;0.50;;;;;;;32.06;22.59;98585.38;5030930;28;20329;-76
2021/07/21 11:34:38;;;;;;;0.10;0.10;;;;;;;32.05;22.74;98572.75;5030722;28;20026;-75
2021/07/21 11:37:27;;;;;;;0.43;0.43;;;;;;;32.09;23.04;98578.97;5030380;28;20032;-76
2021/07/21 11:39:55;;;;;;;2.08;1.67;;;;;;;32.10;23.64;98586.06;5030880;28;20030;-76
2021/07/21 11:42:27;;;;;;;0.65;0.20;;;;;;;32.14;23.73;98580.44;5030611;28;20025;-76
2021/07/21 11:45:18;;;;;;;1.00;0.55;;;;;;;32.14;23.81;98572.13;5032956;28;20039;-76
2021/07/21 11:48:00;;;;;;;0.90;0.45;;;;;;;32.13;24.17;98563.06;5035069;28;20412;-76
2021/07/21 11:50:30;;;;;;;0.43;0.43;;;;;;;32.13;23.54;98573.34;5035023;28;20108;-76
2021/07/21 11:52:58;;;;;;;1.33;0.77;;;;;;;32.14;23.45;98563.84;5034986;28;20151;-76